OAL792 LGAV-LICR
Flight info
| Callsign | OAL792 |
|---|---|
| Flight time | N/A |
| Altitude | 40000 |
| Route | KOR UN604 RUTOM/N0450F410 DCT EKPAR DCT GIMEL |
| Aircraft | LJ45/M-SDFGILRWY/SB1 |
Departure
| Time | N/A |
|---|---|
| Airport | Athens Eleftherios Venizelos International Airport (LGAV) |
Arrival
| Time | 2026-05-01 11:16 |
|---|---|
| Airport | Reggio Calabria Airport (LICR) |
| Time | Latitude | Longitude | Altitude | Speed | Heading |
|---|---|---|---|---|---|
| 2026-05-01 10:23 | 38.29247 | 20.59827 | 40145 ft | 387 kts | 280° |
| 2026-05-01 10:24 | 38.31222 | 20.46498 | 40122 ft | 376 kts | 280° |
| 2026-05-01 10:25 | 38.33116 | 20.33531 | 40123 ft | 373 kts | 280° |
| 2026-05-01 10:26 | 38.34069 | 20.27015 | 40128 ft | 375 kts | 280° |
| 2026-05-01 10:27 | 38.35972 | 20.13889 | 40128 ft | 377 kts | 280° |
| 2026-05-01 10:28 | 38.37392 | 20.04023 | 40141 ft | 378 kts | 280° |
| 2026-05-01 10:28 | 38.38805 | 19.94143 | 40142 ft | 378 kts | 280° |
| 2026-05-01 10:29 | 38.40204 | 19.84302 | 40137 ft | 378 kts | 280° |
| 2026-05-01 10:30 | 38.42071 | 19.71073 | 40152 ft | 378 kts | 280° |
| 2026-05-01 10:31 | 38.43910 | 19.57929 | 40151 ft | 378 kts | 279° |
| 2026-05-01 10:32 | 38.45284 | 19.48035 | 40159 ft | 378 kts | 279° |
| 2026-05-01 10:33 | 38.47105 | 19.34827 | 40149 ft | 378 kts | 279° |
| 2026-05-01 10:34 | 38.48462 | 19.24907 | 40162 ft | 378 kts | 279° |
| 2026-05-01 10:34 | 38.49362 | 19.18285 | 40157 ft | 379 kts | 279° |
| 2026-05-01 10:35 | 38.50705 | 19.08346 | 40160 ft | 379 kts | 279° |
| 2026-05-01 10:35 | 38.51622 | 19.01760 | 40491 ft | 374 kts | 279° |
| 2026-05-01 10:36 | 38.51781 | 18.95063 | 40973 ft | 382 kts | 270° |
| 2026-05-01 10:36 | 38.51711 | 18.91667 | 41204 ft | 384 kts | 270° |
| 2026-05-01 10:37 | 38.51643 | 18.84776 | 41185 ft | 387 kts | 271° |
| 2026-05-01 10:37 | 38.51491 | 18.74613 | 41176 ft | 378 kts | 271° |
| 2026-05-01 10:38 | 38.51396 | 18.67932 | 41182 ft | 374 kts | 271° |
| 2026-05-01 10:38 | 38.51294 | 18.61327 | 41175 ft | 370 kts | 271° |
| 2026-05-01 10:39 | 38.51190 | 18.54784 | 41183 ft | 367 kts | 271° |
| 2026-05-01 10:39 | 38.51083 | 18.48284 | 41182 ft | 365 kts | 271° |
| 2026-05-01 10:40 | 38.50974 | 18.41824 | 41187 ft | 363 kts | 271° |
| 2026-05-01 10:40 | 38.50862 | 18.35400 | 41186 ft | 361 kts | 270° |
| 2026-05-01 10:41 | 38.50746 | 18.29000 | 41187 ft | 360 kts | 270° |
| 2026-05-01 10:42 | 38.50567 | 18.19436 | 41187 ft | 359 kts | 270° |
| 2026-05-01 10:42 | 38.50443 | 18.13077 | 41192 ft | 358 kts | 270° |
| 2026-05-01 10:43 | 38.50317 | 18.06732 | 41194 ft | 357 kts | 270° |
| 2026-05-01 10:43 | 38.50187 | 18.00400 | 41197 ft | 357 kts | 270° |
| 2026-05-01 10:44 | 38.50054 | 17.94073 | 41201 ft | 356 kts | 270° |
| 2026-05-01 10:44 | 38.49918 | 17.87752 | 41202 ft | 357 kts | 270° |
| 2026-05-01 10:45 | 38.49773 | 17.81316 | 41211 ft | 369 kts | 270° |
| 2026-05-01 10:45 | 38.49619 | 17.74645 | 41217 ft | 382 kts | 270° |
| 2026-05-01 10:46 | 38.49461 | 17.67779 | 41222 ft | 391 kts | 270° |
| 2026-05-01 10:46 | 38.49293 | 17.60826 | 41222 ft | 392 kts | 270° |
| 2026-05-01 10:47 | 38.49125 | 17.53882 | 41230 ft | 391 kts | 270° |
| 2026-05-01 10:47 | 38.48953 | 17.47023 | 41228 ft | 387 kts | 270° |
| 2026-05-01 10:48 | 38.48778 | 17.40207 | 41218 ft | 382 kts | 270° |
| 2026-05-01 10:48 | 38.48601 | 17.33455 | 41217 ft | 380 kts | 270° |
| 2026-05-01 10:49 | 38.48421 | 17.26712 | 41209 ft | 380 kts | 270° |
| 2026-05-01 10:49 | 38.48236 | 17.19985 | 41208 ft | 379 kts | 270° |
| 2026-05-01 10:50 | 38.48050 | 17.13266 | 41209 ft | 379 kts | 270° |
| 2026-05-01 10:50 | 38.47858 | 17.06548 | 41207 ft | 379 kts | 270° |
| 2026-05-01 10:51 | 38.47663 | 16.99839 | 41208 ft | 378 kts | 270° |
| 2026-05-01 10:51 | 38.47469 | 16.93132 | 41067 ft | 379 kts | 270° |
| 2026-05-01 10:51 | 38.47458 | 16.89763 | 40278 ft | 380 kts | 272° |
| 2026-05-01 10:52 | 38.47439 | 16.86410 | 39501 ft | 376 kts | 271° |
| 2026-05-01 10:52 | 38.47370 | 16.83095 | 38658 ft | 372 kts | 270° |
| 2026-05-01 10:52 | 38.47317 | 16.79802 | 37539 ft | 370 kts | 271° |
| 2026-05-01 10:52 | 38.47273 | 16.76533 | 36489 ft | 367 kts | 271° |
| 2026-05-01 10:53 | 38.47233 | 16.73298 | 35493 ft | 362 kts | 271° |
| 2026-05-01 10:53 | 38.47192 | 16.70118 | 34544 ft | 356 kts | 271° |
| 2026-05-01 10:53 | 38.47149 | 16.66985 | 33527 ft | 350 kts | 271° |
| 2026-05-01 10:53 | 38.47108 | 16.63908 | 32491 ft | 344 kts | 271° |
| 2026-05-01 10:54 | 38.47066 | 16.60887 | 31544 ft | 336 kts | 271° |
| 2026-05-01 10:54 | 38.47068 | 16.57949 | 30638 ft | 326 kts | 273° |
| 2026-05-01 10:54 | 38.47046 | 16.55077 | 29461 ft | 322 kts | 270° |
| 2026-05-01 10:54 | 38.46943 | 16.52226 | 27963 ft | 323 kts | 270° |
| 2026-05-01 10:55 | 38.46880 | 16.49344 | 26335 ft | 328 kts | 272° |
| 2026-05-01 10:55 | 38.46858 | 16.46430 | 25024 ft | 327 kts | 272° |
| 2026-05-01 10:55 | 38.46822 | 16.43555 | 23950 ft | 321 kts | 271° |
| 2026-05-01 10:55 | 38.46772 | 16.40718 | 22597 ft | 319 kts | 272° |
| 2026-05-01 10:56 | 38.46724 | 16.37895 | 21255 ft | 317 kts | 271° |
| 2026-05-01 10:56 | 38.46683 | 16.35086 | 19982 ft | 316 kts | 272° |
| 2026-05-01 10:56 | 38.46636 | 16.32291 | 18792 ft | 315 kts | 272° |
| 2026-05-01 10:56 | 38.46590 | 16.29494 | 17423 ft | 316 kts | 272° |
| 2026-05-01 10:57 | 38.46544 | 16.26698 | 16210 ft | 314 kts | 272° |
| 2026-05-01 10:57 | 38.46497 | 16.23926 | 15061 ft | 312 kts | 272° |
| 2026-05-01 10:57 | 38.46449 | 16.21161 | 13977 ft | 311 kts | 272° |
| 2026-05-01 10:57 | 38.46401 | 16.18403 | 12824 ft | 310 kts | 271° |
| 2026-05-01 10:58 | 38.46354 | 16.15666 | 11845 ft | 308 kts | 271° |
| 2026-05-01 10:58 | 38.46306 | 16.12942 | 10975 ft | 308 kts | 271° |
| 2026-05-01 10:58 | 38.46329 | 16.10228 | 10432 ft | 303 kts | 278° |
| 2026-05-01 10:58 | 38.46970 | 16.07720 | 10148 ft | 290 kts | 297° |
| 2026-05-01 10:59 | 38.48101 | 16.05692 | 10142 ft | 273 kts | 312° |
| 2026-05-01 10:59 | 38.49528 | 16.04199 | 10133 ft | 259 kts | 317° |
| 2026-05-01 10:59 | 38.50455 | 16.02338 | 10136 ft | 247 kts | 286° |
| 2026-05-01 10:59 | 38.50529 | 16.00911 | 10139 ft | 246 kts | 264° |
| 2026-05-01 11:00 | 38.49808 | 15.98917 | 10141 ft | 257 kts | 233° |
| 2026-05-01 11:00 | 38.48287 | 15.97631 | 10147 ft | 272 kts | 205° |
| 2026-05-01 11:00 | 38.46462 | 15.96886 | 10149 ft | 278 kts | 199° |
| 2026-05-01 11:00 | 38.44548 | 15.96327 | 10150 ft | 287 kts | 192° |
| 2026-05-01 11:01 | 38.42508 | 15.96380 | 10155 ft | 299 kts | 176° |
| 2026-05-01 11:01 | 38.40419 | 15.96663 | 10160 ft | 303 kts | 177° |
| 2026-05-01 11:01 | 38.38341 | 15.96806 | 10152 ft | 296 kts | 190° |
| 2026-05-01 11:01 | 38.36424 | 15.96012 | 10149 ft | 287 kts | 210° |
| 2026-05-01 11:02 | 38.34679 | 15.94811 | 10154 ft | 283 kts | 216° |
| 2026-05-01 11:02 | 38.33067 | 15.93404 | 10156 ft | 280 kts | 221° |
| 2026-05-01 11:02 | 38.31556 | 15.91862 | 10160 ft | 278 kts | 224° |
| 2026-05-01 11:02 | 38.30106 | 15.90254 | 10159 ft | 275 kts | 227° |
| 2026-05-01 11:03 | 38.28752 | 15.88541 | 10157 ft | 274 kts | 230° |
| 2026-05-01 11:03 | 38.27428 | 15.86809 | 10157 ft | 272 kts | 230° |
| 2026-05-01 11:03 | 38.26109 | 15.85051 | 9895 ft | 279 kts | 231° |
| 2026-05-01 11:03 | 38.24779 | 15.83263 | 9527 ft | 277 kts | 230° |
| 2026-05-01 11:04 | 38.23445 | 15.81509 | 9168 ft | 274 kts | 230° |
| 2026-05-01 11:04 | 38.22114 | 15.79797 | 8824 ft | 271 kts | 229° |
| 2026-05-01 11:04 | 38.20787 | 15.78108 | 8484 ft | 269 kts | 229° |
| 2026-05-01 11:04 | 38.19467 | 15.76433 | 8175 ft | 266 kts | 229° |
| 2026-05-01 11:05 | 38.18055 | 15.74990 | 8119 ft | 257 kts | 218° |
| 2026-05-01 11:05 | 38.16510 | 15.73802 | 7748 ft | 260 kts | 215° |
| 2026-05-01 11:05 | 38.14962 | 15.72619 | 7428 ft | 260 kts | 217° |
| 2026-05-01 11:05 | 38.13464 | 15.71343 | 7089 ft | 257 kts | 218° |
| 2026-05-01 11:06 | 38.12026 | 15.70035 | 6794 ft | 252 kts | 224° |
| 2026-05-01 11:06 | 38.10747 | 15.68529 | 6487 ft | 250 kts | 229° |
| 2026-05-01 11:06 | 38.09530 | 15.66975 | 6173 ft | 247 kts | 230° |
| 2026-05-01 11:07 | 38.06698 | 15.64803 | 6158 ft | 243 kts | 195° |
| 2026-05-01 11:07 | 38.05019 | 15.64533 | 6121 ft | 244 kts | 188° |
| 2026-05-01 11:07 | 38.03277 | 15.64330 | 5729 ft | 257 kts | 188° |
| 2026-05-01 11:07 | 38.01470 | 15.64594 | 5381 ft | 269 kts | 161° |
| 2026-05-01 11:08 | 37.99711 | 15.65485 | 5068 ft | 274 kts | 161° |
| 2026-05-01 11:08 | 37.97882 | 15.66189 | 4754 ft | 275 kts | 165° |
| 2026-05-01 11:08 | 37.94158 | 15.67274 | 4124 ft | 276 kts | 178° |
| 2026-05-01 11:09 | 37.92259 | 15.67252 | 4004 ft | 268 kts | 185° |
| 2026-05-01 11:09 | 37.90434 | 15.67099 | 4000 ft | 258 kts | 186° |
| 2026-05-01 11:09 | 37.88677 | 15.66933 | 3979 ft | 248 kts | 186° |
| 2026-05-01 11:10 | 37.85287 | 15.66394 | 3355 ft | 241 kts | 209° |
| 2026-05-01 11:10 | 37.84108 | 15.64986 | 3044 ft | 233 kts | 244° |
| 2026-05-01 11:10 | 37.83842 | 15.63067 | 2983 ft | 218 kts | 281° |
| 2026-05-01 11:10 | 37.84523 | 15.61453 | 2985 ft | 207 kts | 317° |
| 2026-05-01 11:11 | 37.85663 | 15.60411 | 2982 ft | 199 kts | 327° |
| 2026-05-01 11:11 | 37.86839 | 15.59507 | 2988 ft | 197 kts | 332° |
| 2026-05-01 11:11 | 37.88166 | 15.59227 | 2986 ft | 197 kts | 8° |
| 2026-05-01 11:11 | 37.89461 | 15.59705 | 2991 ft | 191 kts | 17° |
| 2026-05-01 11:12 | 37.90702 | 15.60256 | 2992 ft | 188 kts | 18° |
| 2026-05-01 11:12 | 37.91895 | 15.60933 | 2984 ft | 188 kts | 23° |
| 2026-05-01 11:12 | 37.93051 | 15.61656 | 2990 ft | 176 kts | 24° |
| 2026-05-01 11:12 | 37.94076 | 15.62300 | 2987 ft | 154 kts | 24° |
| 2026-05-01 11:13 | 37.94976 | 15.62869 | 2977 ft | 139 kts | 24° |
| 2026-05-01 11:13 | 37.95838 | 15.63416 | 2916 ft | 139 kts | 21° |
| 2026-05-01 11:13 | 37.96793 | 15.63849 | 2414 ft | 150 kts | 15° |
| 2026-05-01 11:13 | 37.97786 | 15.64242 | 1925 ft | 148 kts | 15° |
| 2026-05-01 11:14 | 37.98797 | 15.64465 | 1473 ft | 145 kts | 5° |
| 2026-05-01 11:14 | 37.99774 | 15.64688 | 1298 ft | 140 kts | 17° |
| 2026-05-01 11:14 | 38.00698 | 15.65063 | 1213 ft | 140 kts | 19° |
| 2026-05-01 11:14 | 38.01638 | 15.65496 | 1271 ft | 148 kts | 21° |
| 2026-05-01 11:15 | 38.02661 | 15.65925 | 1195 ft | 160 kts | 15° |
| 2026-05-01 11:15 | 38.03670 | 15.66264 | 925 ft | 142 kts | 12° |
| 2026-05-01 11:15 | 38.04650 | 15.66365 | 546 ft | 143 kts | 354° |
| 2026-05-01 11:15 | 38.05628 | 15.66122 | 306 ft | 145 kts | 333° |
| 2026-05-01 11:16 | 38.06508 | 15.65552 | 91 ft | 139 kts | 328° |
| 2026-05-01 11:16 | 38.07297 | 15.65041 | 49 ft | 93 kts | 331° |
| 2026-05-01 11:16 | 38.07500 | 15.64900 | 58 ft | 3 kts | 329° |
| 2026-05-01 11:16 | 38.07527 | 15.64868 | 59 ft | 6 kts | 5° |
| 2026-05-01 11:17 | 38.07515 | 15.64899 | 61 ft | 0 kts | 141° |
| 2026-05-01 11:17 | 38.07478 | 15.64924 | 60 ft | 11 kts | 154° |
| 2026-05-01 11:17 | 38.07403 | 15.64972 | 56 ft | 10 kts | 147° |
| 2026-05-01 11:17 | 38.07395 | 15.65037 | 56 ft | 9 kts | 65° |
| 2026-05-01 11:18 | 38.07408 | 15.65070 | 57 ft | 0 kts | 63° |
| 2026-05-01 11:18 | 38.07409 | 15.65073 | 57 ft | 3 kts | 63° |
| 2026-05-01 11:18 | 38.07411 | 15.65098 | 58 ft | 2 kts | 86° |
| 2026-05-01 11:18 | 38.07403 | 15.65133 | 55 ft | 7 kts | 128° |
| 2026-05-01 11:19 | 38.07394 | 15.65143 | 57 ft | 2 kts | 150° |
| 2026-05-01 11:19 | 38.07390 | 15.65146 | 54 ft | 0 kts | 150° |